sensor_id;sensor_type;location;lat;lon;timestamp;P1;durP1;ratioP1;P2;durP2;ratioP2
76712;SDS011;65640;43.154;25.658;2022-12-10T00:00:53;51.63;;;27.10;;
76712;SDS011;65640;43.154;25.658;2022-12-10T00:03:18;45.92;;;25.35;;
76712;SDS011;65640;43.154;25.658;2022-12-10T00:05:43;36.05;;;23.38;;
76712;SDS011;65640;43.154;25.658;2022-12-10T00:08:09;42.58;;;23.70;;
76712;SDS011;65640;43.154;25.658;2022-12-10T00:10:38;42.90;;;21.63;;
76712;SDS011;65640;43.154;25.658;2022-12-10T00:13:04;39.33;;;22.05;;
76712;SDS011;65640;43.154;25.658;2022-12-10T00:15:29;41.13;;;22.85;;
76712;SDS011;65640;43.154;25.658;2022-12-10T00:17:55;38.22;;;22.02;;
76712;SDS011;65640;43.154;25.658;2022-12-10T00:20:20;33.90;;;20.58;;
76712;SDS011;65640;43.154;25.658;2022-12-10T00:22:46;36.80;;;21.77;;
76712;SDS011;65640;43.154;25.658;2022-12-10T00:25:11;36.17;;;21.48;;
76712;SDS011;65640;43.154;25.658;2022-12-10T00:27:37;31.58;;;19.23;;
76712;SDS011;65640;43.154;25.658;2022-12-10T00:30:02;34.03;;;18.48;;
76712;SDS011;65640;43.154;25.658;2022-12-10T00:32:28;34.53;;;18.35;;
76712;SDS011;65640;43.154;25.658;2022-12-10T00:34:53;35.67;;;20.58;;
76712;SDS011;65640;43.154;25.658;2022-12-10T00:37:19;31.95;;;19.45;;
76712;SDS011;65640;43.154;25.658;2022-12-10T00:39:44;35.00;;;19.90;;
76712;SDS011;65640;43.154;25.658;2022-12-10T00:42:09;36.75;;;19.00;;
76712;SDS011;65640;43.154;25.658;2022-12-10T00:44:35;26.73;;;17.38;;
76712;SDS011;65640;43.154;25.658;2022-12-10T00:47:00;28.05;;;16.48;;
76712;SDS011;65640;43.154;25.658;2022-12-10T00:49:26;33.38;;;17.25;;
76712;SDS011;65640;43.154;25.658;2022-12-10T00:51:51;34.60;;;17.58;;
76712;SDS011;65640;43.154;25.658;2022-12-10T00:54:16;36.65;;;17.40;;
76712;SDS011;65640;43.154;25.658;2022-12-10T00:56:42;31.58;;;15.82;;
76712;SDS011;65640;43.154;25.658;2022-12-10T00:59:07;27.88;;;15.93;;
76712;SDS011;65640;43.154;25.658;2022-12-10T01:01:34;41.78;;;15.85;;
76712;SDS011;65640;43.154;25.658;2022-12-10T01:04:04;17.52;;;13.32;;
76712;SDS011;65640;43.154;25.658;2022-12-10T01:06:32;17.50;;;12.20;;
76712;SDS011;65640;43.154;25.658;2022-12-10T01:09:00;19.38;;;11.07;;
76712;SDS011;65640;43.154;25.658;2022-12-10T01:11:31;17.00;;;12.48;;
76712;SDS011;65640;43.154;25.658;2022-12-10T01:13:59;17.08;;;12.73;;
76712;SDS011;65640;43.154;25.658;2022-12-10T01:16:25;16.45;;;10.32;;
76712;SDS011;65640;43.154;25.658;2022-12-10T01:18:54;22.60;;;11.80;;
76712;SDS011;65640;43.154;25.658;2022-12-10T01:21:21;17.70;;;13.38;;
76712;SDS011;65640;43.154;25.658;2022-12-10T01:23:48;18.20;;;12.02;;
76712;SDS011;65640;43.154;25.658;2022-12-10T01:26:19;15.60;;;10.88;;
76712;SDS011;65640;43.154;25.658;2022-12-10T01:28:47;13.88;;;12.07;;
76712;SDS011;65640;43.154;25.658;2022-12-10T01:31:20;14.45;;;11.40;;
76712;SDS011;65640;43.154;25.658;2022-12-10T01:33:47;19.02;;;14.00;;
76712;SDS011;65640;43.154;25.658;2022-12-10T01:36:21;17.10;;;12.45;;
76712;SDS011;65640;43.154;25.658;2022-12-10T01:38:49;21.92;;;13.43;;
76712;SDS011;65640;43.154;25.658;2022-12-10T01:41:18;23.15;;;13.55;;
76712;SDS011;65640;43.154;25.658;2022-12-10T01:46:21;16.85;;;11.55;;
76712;SDS011;65640;43.154;25.658;2022-12-10T01:48:48;25.48;;;12.18;;
76712;SDS011;65640;43.154;25.658;2022-12-10T01:51:14;15.88;;;11.13;;
76712;SDS011;65640;43.154;25.658;2022-12-10T01:53:41;19.48;;;10.98;;
76712;SDS011;65640;43.154;25.658;2022-12-10T01:56:09;17.98;;;9.80;;
76712;SDS011;65640;43.154;25.658;2022-12-10T01:58:35;17.02;;;11.40;;
76712;SDS011;65640;43.154;25.658;2022-12-10T02:06:31;19.17;;;12.55;;
76712;SDS011;65640;43.154;25.658;2022-12-10T02:09:23;17.63;;;11.05;;
76712;SDS011;65640;43.154;25.658;2022-12-10T02:17:31;16.25;;;10.13;;
76712;SDS011;65640;43.154;25.658;2022-12-10T02:20:07;14.48;;;9.68;;
76712;SDS011;65640;43.154;25.658;2022-12-10T02:22:39;16.77;;;10.55;;
76712;SDS011;65640;43.154;25.658;2022-12-10T02:25:17;14.45;;;10.10;;
76712;SDS011;65640;43.154;25.658;2022-12-10T02:30:55;13.80;;;10.73;;
76712;SDS011;65640;43.154;25.658;2022-12-10T02:33:21;24.55;;;20.75;;
76712;SDS011;65640;43.154;25.658;2022-12-10T02:35:49;28.55;;;19.02;;
76712;SDS011;65640;43.154;25.658;2022-12-10T02:38:29;20.85;;;12.07;;
76712;SDS011;65640;43.154;25.658;2022-12-10T02:41:08;20.50;;;12.60;;
76712;SDS011;65640;43.154;25.658;2022-12-10T02:43:40;14.43;;;10.25;;
76712;SDS011;65640;43.154;25.658;2022-12-10T02:46:06;19.77;;;10.05;;
76712;SDS011;65640;43.154;25.658;2022-12-10T02:48:32;16.50;;;12.10;;
76712;SDS011;65640;43.154;25.658;2022-12-10T02:51:00;14.70;;;9.32;;
76712;SDS011;65640;43.154;25.658;2022-12-10T02:53:25;19.20;;;9.45;;
76712;SDS011;65640;43.154;25.658;2022-12-10T03:04:35;22.10;;;12.13;;
76712;SDS011;65640;43.154;25.658;2022-12-10T03:07:06;23.40;;;12.88;;
76712;SDS011;65640;43.154;25.658;2022-12-10T03:09:39;20.98;;;12.38;;
76712;SDS011;65640;43.154;25.658;2022-12-10T03:12:30;21.63;;;12.05;;
76712;SDS011;65640;43.154;25.658;2022-12-10T03:15:00;26.13;;;13.60;;
76712;SDS011;65640;43.154;25.658;2022-12-10T03:17:30;17.17;;;10.30;;
76712;SDS011;65640;43.154;25.658;2022-12-10T03:19:57;14.02;;;9.32;;
76712;SDS011;65640;43.154;25.658;2022-12-10T03:22:24;15.05;;;9.13;;
76712;SDS011;65640;43.154;25.658;2022-12-10T03:24:49;15.68;;;9.00;;
76712;SDS011;65640;43.154;25.658;2022-12-10T03:29:47;19.40;;;10.77;;
76712;SDS011;65640;43.154;25.658;2022-12-10T03:32:15;23.25;;;12.40;;
76712;SDS011;65640;43.154;25.658;2022-12-10T03:34:43;15.85;;;10.98;;
76712;SDS011;65640;43.154;25.658;2022-12-10T03:37:09;12.73;;;8.93;;
76712;SDS011;65640;43.154;25.658;2022-12-10T03:39:36;14.90;;;11.57;;
76712;SDS011;65640;43.154;25.658;2022-12-10T03:42:03;13.73;;;9.32;;
76712;SDS011;65640;43.154;25.658;2022-12-10T03:44:30;14.77;;;9.07;;
76712;SDS011;65640;43.154;25.658;2022-12-10T03:46:57;13.25;;;9.60;;
76712;SDS011;65640;43.154;25.658;2022-12-10T03:49:23;17.77;;;9.73;;
76712;SDS011;65640;43.154;25.658;2022-12-10T03:51:49;12.98;;;9.68;;
76712;SDS011;65640;43.154;25.658;2022-12-10T03:54:15;14.50;;;10.10;;
76712;SDS011;65640;43.154;25.658;2022-12-10T03:56:40;15.43;;;10.48;;
76712;SDS011;65640;43.154;25.658;2022-12-10T03:59:06;13.68;;;9.60;;
76712;SDS011;65640;43.154;25.658;2022-12-10T04:01:31;11.65;;;9.77;;
76712;SDS011;65640;43.154;25.658;2022-12-10T04:03:57;13.90;;;9.80;;
76712;SDS011;65640;43.154;25.658;2022-12-10T04:06:22;14.80;;;9.52;;
76712;SDS011;65640;43.154;25.658;2022-12-10T04:08:47;14.88;;;9.20;;
76712;SDS011;65640;43.154;25.658;2022-12-10T04:11:14;17.10;;;10.82;;
76712;SDS011;65640;43.154;25.658;2022-12-10T04:13:40;13.55;;;10.27;;
76712;SDS011;65640;43.154;25.658;2022-12-10T04:16:25;18.55;;;10.70;;
76712;SDS011;65640;43.154;25.658;2022-12-10T04:19:04;10.85;;;9.60;;
76712;SDS011;65640;43.154;25.658;2022-12-10T04:21:35;14.18;;;9.77;;
76712;SDS011;65640;43.154;25.658;2022-12-10T04:24:21;17.27;;;11.15;;
76712;SDS011;65640;43.154;25.658;2022-12-10T04:27:08;24.23;;;13.57;;
76712;SDS011;65640;43.154;25.658;2022-12-10T04:29:36;19.33;;;11.23;;
76712;SDS011;65640;43.154;25.658;2022-12-10T04:32:02;15.30;;;9.70;;
76712;SDS011;65640;43.154;25.658;2022-12-10T04:34:28;20.85;;;13.23;;
76712;SDS011;65640;43.154;25.658;2022-12-10T04:36:53;14.40;;;10.60;;
76712;SDS011;65640;43.154;25.658;2022-12-10T04:39:19;22.08;;;10.70;;
76712;SDS011;65640;43.154;25.658;2022-12-10T04:41:45;15.45;;;10.85;;
76712;SDS011;65640;43.154;25.658;2022-12-10T04:44:12;23.27;;;13.73;;
76712;SDS011;65640;43.154;25.658;2022-12-10T04:46:38;17.08;;;12.43;;
76712;SDS011;65640;43.154;25.658;2022-12-10T04:49:04;13.40;;;10.95;;
76712;SDS011;65640;43.154;25.658;2022-12-10T04:51:31;12.80;;;8.98;;
76712;SDS011;65640;43.154;25.658;2022-12-10T04:53:56;13.00;;;10.77;;
76712;SDS011;65640;43.154;25.658;2022-12-10T04:56:22;14.35;;;10.80;;
76712;SDS011;65640;43.154;25.658;2022-12-10T04:58:48;16.60;;;11.50;;
76712;SDS011;65640;43.154;25.658;2022-12-10T05:01:13;13.50;;;11.13;;
76712;SDS011;65640;43.154;25.658;2022-12-10T05:03:39;17.95;;;10.98;;
76712;SDS011;65640;43.154;25.658;2022-12-10T05:06:09;25.00;;;15.13;;
76712;SDS011;65640;43.154;25.658;2022-12-10T05:08:36;23.13;;;14.55;;
76712;SDS011;65640;43.154;25.658;2022-12-10T05:11:03;18.73;;;13.27;;
76712;SDS011;65640;43.154;25.658;2022-12-10T05:13:31;19.05;;;11.20;;
76712;SDS011;65640;43.154;25.658;2022-12-10T05:15:57;20.77;;;10.77;;
76712;SDS011;65640;43.154;25.658;2022-12-10T05:18:23;10.95;;;7.78;;
76712;SDS011;65640;43.154;25.658;2022-12-10T05:20:49;13.10;;;9.20;;
76712;SDS011;65640;43.154;25.658;2022-12-10T05:23:14;17.08;;;10.55;;
76712;SDS011;65640;43.154;25.658;2022-12-10T05:25:59;13.75;;;8.85;;
76712;SDS011;65640;43.154;25.658;2022-12-10T05:28:27;10.70;;;9.30;;
76712;SDS011;65640;43.154;25.658;2022-12-10T05:30:54;14.07;;;8.52;;
76712;SDS011;65640;43.154;25.658;2022-12-10T05:33:19;12.07;;;8.07;;
76712;SDS011;65640;43.154;25.658;2022-12-10T05:35:52;13.55;;;7.15;;
76712;SDS011;65640;43.154;25.658;2022-12-10T05:38:18;10.10;;;8.80;;
76712;SDS011;65640;43.154;25.658;2022-12-10T05:40:43;12.52;;;9.75;;
76712;SDS011;65640;43.154;25.658;2022-12-10T05:43:09;12.10;;;9.45;;
76712;SDS011;65640;43.154;25.658;2022-12-10T05:45:34;14.20;;;10.38;;
76712;SDS011;65640;43.154;25.658;2022-12-10T05:47:59;13.13;;;9.68;;
76712;SDS011;65640;43.154;25.658;2022-12-10T05:50:26;12.55;;;8.95;;
76712;SDS011;65640;43.154;25.658;2022-12-10T05:52:51;15.68;;;11.23;;
76712;SDS011;65640;43.154;25.658;2022-12-10T05:55:17;13.40;;;10.55;;
76712;SDS011;65640;43.154;25.658;2022-12-10T05:57:43;13.40;;;10.55;;
76712;SDS011;65640;43.154;25.658;2022-12-10T06:00:09;22.35;;;15.20;;
76712;SDS011;65640;43.154;25.658;2022-12-10T06:02:35;19.67;;;13.95;;
76712;SDS011;65640;43.154;25.658;2022-12-10T06:05:01;20.17;;;14.45;;
76712;SDS011;65640;43.154;25.658;2022-12-10T06:07:26;20.33;;;14.85;;
76712;SDS011;65640;43.154;25.658;2022-12-10T06:09:51;27.77;;;16.02;;
76712;SDS011;65640;43.154;25.658;2022-12-10T06:12:17;24.45;;;15.43;;
76712;SDS011;65640;43.154;25.658;2022-12-10T06:14:42;18.45;;;13.77;;
76712;SDS011;65640;43.154;25.658;2022-12-10T06:17:08;21.70;;;14.70;;
76712;SDS011;65640;43.154;25.658;2022-12-10T06:19:34;17.33;;;12.52;;
76712;SDS011;65640;43.154;25.658;2022-12-10T06:21:59;18.92;;;13.80;;
76712;SDS011;65640;43.154;25.658;2022-12-10T06:24:25;16.30;;;12.38;;
76712;SDS011;65640;43.154;25.658;2022-12-10T06:26:50;23.65;;;15.00;;
76712;SDS011;65640;43.154;25.658;2022-12-10T06:29:16;21.92;;;14.18;;
76712;SDS011;65640;43.154;25.658;2022-12-10T06:31:42;23.63;;;15.80;;
76712;SDS011;65640;43.154;25.658;2022-12-10T06:34:08;28.40;;;16.40;;
76712;SDS011;65640;43.154;25.658;2022-12-10T06:38:02;29.30;;;17.98;;
76712;SDS011;65640;43.154;25.658;2022-12-10T06:40:27;68.13;;;28.05;;
76712;SDS011;65640;43.154;25.658;2022-12-10T06:42:52;89.32;;;32.28;;
76712;SDS011;65640;43.154;25.658;2022-12-10T06:45:18;64.78;;;25.13;;
76712;SDS011;65640;43.154;25.658;2022-12-10T06:47:43;65.30;;;27.42;;
76712;SDS011;65640;43.154;25.658;2022-12-10T06:50:09;17.92;;;10.20;;
76712;SDS011;65640;43.154;25.658;2022-12-10T06:54:50;38.55;;;16.85;;
76712;SDS011;65640;43.154;25.658;2022-12-10T06:57:15;22.52;;;10.95;;
76712;SDS011;65640;43.154;25.658;2022-12-10T06:59:41;11.43;;;8.68;;
76712;SDS011;65640;43.154;25.658;2022-12-10T07:02:07;12.55;;;8.93;;
76712;SDS011;65640;43.154;25.658;2022-12-10T07:04:34;11.25;;;8.20;;
76712;SDS011;65640;43.154;25.658;2022-12-10T07:06:59;21.05;;;10.95;;
76712;SDS011;65640;43.154;25.658;2022-12-10T07:09:24;19.45;;;10.73;;
76712;SDS011;65640;43.154;25.658;2022-12-10T07:11:50;18.27;;;9.93;;
76712;SDS011;65640;43.154;25.658;2022-12-10T07:14:16;28.98;;;13.65;;
76712;SDS011;65640;43.154;25.658;2022-12-10T07:16:42;17.42;;;9.10;;
76712;SDS011;65640;43.154;25.658;2022-12-10T07:19:08;13.85;;;7.25;;
76712;SDS011;65640;43.154;25.658;2022-12-10T07:21:35;13.13;;;7.75;;
76712;SDS011;65640;43.154;25.658;2022-12-10T07:24:06;21.13;;;10.50;;
76712;SDS011;65640;43.154;25.658;2022-12-10T07:26:35;19.17;;;9.43;;
76712;SDS011;65640;43.154;25.658;2022-12-10T07:29:03;27.55;;;14.48;;
76712;SDS011;65640;43.154;25.658;2022-12-10T07:36:22;18.05;;;9.93;;
76712;SDS011;65640;43.154;25.658;2022-12-10T07:38:48;13.38;;;8.57;;
76712;SDS011;65640;43.154;25.658;2022-12-10T07:41:14;15.07;;;9.20;;
76712;SDS011;65640;43.154;25.658;2022-12-10T07:43:40;14.13;;;7.85;;
76712;SDS011;65640;43.154;25.658;2022-12-10T07:46:10;11.02;;;7.25;;
76712;SDS011;65640;43.154;25.658;2022-12-10T07:48:56;10.82;;;7.30;;
76712;SDS011;65640;43.154;25.658;2022-12-10T07:51:24;15.32;;;10.55;;
76712;SDS011;65640;43.154;25.658;2022-12-10T07:53:53;16.45;;;11.98;;
76712;SDS011;65640;43.154;25.658;2022-12-10T07:56:19;19.08;;;10.40;;
76712;SDS011;65640;43.154;25.658;2022-12-10T07:58:46;30.40;;;17.92;;
76712;SDS011;65640;43.154;25.658;2022-12-10T08:01:13;13.82;;;10.93;;
76712;SDS011;65640;43.154;25.658;2022-12-10T08:03:40;18.00;;;11.38;;
76712;SDS011;65640;43.154;25.658;2022-12-10T08:06:07;16.08;;;10.27;;
76712;SDS011;65640;43.154;25.658;2022-12-10T08:08:34;20.42;;;10.75;;
76712;SDS011;65640;43.154;25.658;2022-12-10T08:11:01;12.27;;;9.85;;
76712;SDS011;65640;43.154;25.658;2022-12-10T08:13:28;13.82;;;10.45;;
76712;SDS011;65640;43.154;25.658;2022-12-10T08:15:54;14.32;;;9.95;;
76712;SDS011;65640;43.154;25.658;2022-12-10T08:18:24;19.95;;;12.18;;
76712;SDS011;65640;43.154;25.658;2022-12-10T08:20:50;19.08;;;11.65;;
76712;SDS011;65640;43.154;25.658;2022-12-10T08:23:15;15.52;;;11.48;;
76712;SDS011;65640;43.154;25.658;2022-12-10T08:25:41;21.75;;;12.55;;
76712;SDS011;65640;43.154;25.658;2022-12-10T08:28:06;22.15;;;12.48;;
76712;SDS011;65640;43.154;25.658;2022-12-10T08:30:34;15.88;;;11.32;;
76712;SDS011;65640;43.154;25.658;2022-12-10T08:32:59;19.02;;;12.27;;
76712;SDS011;65640;43.154;25.658;2022-12-10T08:35:24;26.08;;;15.73;;
76712;SDS011;65640;43.154;25.658;2022-12-10T08:37:50;28.73;;;15.05;;
76712;SDS011;65640;43.154;25.658;2022-12-10T08:40:16;25.55;;;14.90;;
76712;SDS011;65640;43.154;25.658;2022-12-10T08:42:41;24.60;;;15.07;;
76712;SDS011;65640;43.154;25.658;2022-12-10T08:45:07;21.20;;;13.65;;
76712;SDS011;65640;43.154;25.658;2022-12-10T08:47:33;19.60;;;12.88;;
76712;SDS011;65640;43.154;25.658;2022-12-10T08:49:58;22.80;;;14.32;;
76712;SDS011;65640;43.154;25.658;2022-12-10T08:52:23;23.55;;;13.80;;
76712;SDS011;65640;43.154;25.658;2022-12-10T08:54:49;16.20;;;11.38;;
76712;SDS011;65640;43.154;25.658;2022-12-10T08:57:14;20.65;;;13.30;;
76712;SDS011;65640;43.154;25.658;2022-12-10T08:59:40;16.98;;;12.48;;
76712;SDS011;65640;43.154;25.658;2022-12-10T09:02:07;18.48;;;13.23;;
76712;SDS011;65640;43.154;25.658;2022-12-10T09:04:35;25.17;;;14.80;;
76712;SDS011;65640;43.154;25.658;2022-12-10T09:07:00;18.55;;;13.38;;
76712;SDS011;65640;43.154;25.658;2022-12-10T09:09:26;21.73;;;13.80;;
76712;SDS011;65640;43.154;25.658;2022-12-10T09:11:52;18.42;;;13.68;;
76712;SDS011;65640;43.154;25.658;2022-12-10T09:14:17;20.30;;;13.35;;
76712;SDS011;65640;43.154;25.658;2022-12-10T09:16:43;20.00;;;10.60;;
76712;SDS011;65640;43.154;25.658;2022-12-10T09:19:08;19.08;;;11.35;;
76712;SDS011;65640;43.154;25.658;2022-12-10T09:21:34;16.83;;;12.38;;
76712;SDS011;65640;43.154;25.658;2022-12-10T09:24:00;9.75;;;8.38;;
76712;SDS011;65640;43.154;25.658;2022-12-10T09:26:26;14.50;;;7.88;;
76712;SDS011;65640;43.154;25.658;2022-12-10T09:28:52;13.18;;;7.82;;
76712;SDS011;65640;43.154;25.658;2022-12-10T09:31:18;10.70;;;7.15;;
76712;SDS011;65640;43.154;25.658;2022-12-10T09:33:44;16.25;;;8.13;;
76712;SDS011;65640;43.154;25.658;2022-12-10T09:36:12;11.48;;;6.85;;
76712;SDS011;65640;43.154;25.658;2022-12-10T09:38:39;9.95;;;5.70;;
76712;SDS011;65640;43.154;25.658;2022-12-10T09:41:24;10.65;;;5.97;;
76712;SDS011;65640;43.154;25.658;2022-12-10T09:46:40;8.23;;;5.68;;
76712;SDS011;65640;43.154;25.658;2022-12-10T09:51:46;14.32;;;5.63;;
76712;SDS011;65640;43.154;25.658;2022-12-10T09:54:33;9.73;;;6.32;;
76712;SDS011;65640;43.154;25.658;2022-12-10T09:56:59;10.70;;;7.32;;
76712;SDS011;65640;43.154;25.658;2022-12-10T10:04:40;15.00;;;7.20;;
76712;SDS011;65640;43.154;25.658;2022-12-10T10:07:06;11.25;;;7.05;;
76712;SDS011;65640;43.154;25.658;2022-12-10T10:09:32;15.43;;;7.40;;
76712;SDS011;65640;43.154;25.658;2022-12-10T10:12:09;10.55;;;7.55;;
76712;SDS011;65640;43.154;25.658;2022-12-10T10:14:41;11.45;;;6.95;;
76712;SDS011;65640;43.154;25.658;2022-12-10T10:17:13;10.73;;;6.05;;
76712;SDS011;65640;43.154;25.658;2022-12-10T10:19:45;18.63;;;6.45;;
76712;SDS011;65640;43.154;25.658;2022-12-10T10:22:11;12.30;;;5.80;;
76712;SDS011;65640;43.154;25.658;2022-12-10T10:24:38;12.77;;;5.97;;
76712;SDS011;65640;43.154;25.658;2022-12-10T10:27:15;6.97;;;5.90;;
76712;SDS011;65640;43.154;25.658;2022-12-10T10:29:44;8.35;;;6.18;;
76712;SDS011;65640;43.154;25.658;2022-12-10T10:32:15;11.25;;;5.85;;
76712;SDS011;65640;43.154;25.658;2022-12-10T10:34:55;10.48;;;7.03;;
76712;SDS011;65640;43.154;25.658;2022-12-10T10:37:25;17.00;;;10.18;;
76712;SDS011;65640;43.154;25.658;2022-12-10T10:39:54;15.60;;;6.50;;
76712;SDS011;65640;43.154;25.658;2022-12-10T10:42:25;8.77;;;5.55;;
76712;SDS011;65640;43.154;25.658;2022-12-10T10:44:58;10.30;;;5.35;;
76712;SDS011;65640;43.154;25.658;2022-12-10T10:47:26;7.63;;;4.13;;
76712;SDS011;65640;43.154;25.658;2022-12-10T10:49:53;6.35;;;3.63;;
76712;SDS011;65640;43.154;25.658;2022-12-10T10:52:19;11.75;;;4.45;;
76712;SDS011;65640;43.154;25.658;2022-12-10T10:54:45;8.13;;;4.30;;
76712;SDS011;65640;43.154;25.658;2022-12-10T10:57:23;9.40;;;4.43;;
76712;SDS011;65640;43.154;25.658;2022-12-10T11:00:17;11.07;;;4.35;;
76712;SDS011;65640;43.154;25.658;2022-12-10T11:05:17;12.25;;;5.30;;
76712;SDS011;65640;43.154;25.658;2022-12-10T11:07:49;10.40;;;4.13;;
76712;SDS011;65640;43.154;25.658;2022-12-10T11:10:23;11.75;;;3.72;;
76712;SDS011;65640;43.154;25.658;2022-12-10T11:18:24;6.20;;;2.95;;
76712;SDS011;65640;43.154;25.658;2022-12-10T11:37:46;4.88;;;2.97;;
76712;SDS011;65640;43.154;25.658;2022-12-10T11:40:34;4.97;;;3.60;;
76712;SDS011;65640;43.154;25.658;2022-12-10T11:43:15;9.85;;;3.70;;
76712;SDS011;65640;43.154;25.658;2022-12-10T11:59:49;7.07;;;3.67;;
76712;SDS011;65640;43.154;25.658;2022-12-10T12:03:08;10.10;;;4.93;;
76712;SDS011;65640;43.154;25.658;2022-12-10T12:05:18;8.98;;;5.00;;
76712;SDS011;65640;43.154;25.658;2022-12-10T12:11:01;9.98;;;6.10;;
76712;SDS011;65640;43.154;25.658;2022-12-10T12:13:36;7.50;;;3.70;;
76712;SDS011;65640;43.154;25.658;2022-12-10T12:16:14;5.90;;;3.03;;
76712;SDS011;65640;43.154;25.658;2022-12-10T12:18:47;8.68;;;3.40;;
76712;SDS011;65640;43.154;25.658;2022-12-10T12:21:16;7.20;;;4.03;;
76712;SDS011;65640;43.154;25.658;2022-12-10T12:26:21;12.30;;;7.32;;
76712;SDS011;65640;43.154;25.658;2022-12-10T12:31:37;27.95;;;11.25;;
76712;SDS011;65640;43.154;25.658;2022-12-10T12:37:38;13.65;;;7.20;;
76712;SDS011;65640;43.154;25.658;2022-12-10T12:40:11;13.02;;;5.90;;
76712;SDS011;65640;43.154;25.658;2022-12-10T12:42:52;9.95;;;4.90;;
76712;SDS011;65640;43.154;25.658;2022-12-10T12:45:31;91.28;;;37.58;;
76712;SDS011;65640;43.154;25.658;2022-12-10T12:48:02;71.00;;;32.42;;
76712;SDS011;65640;43.154;25.658;2022-12-10T12:53:28;58.28;;;25.65;;
76712;SDS011;65640;43.154;25.658;2022-12-10T12:59:08;67.95;;;27.42;;
76712;SDS011;65640;43.154;25.658;2022-12-10T13:01:49;57.22;;;28.35;;
76712;SDS011;65640;43.154;25.658;2022-12-10T13:04:22;52.30;;;23.45;;
76712;SDS011;65640;43.154;25.658;2022-12-10T13:09:44;30.45;;;13.02;;
76712;SDS011;65640;43.154;25.658;2022-12-10T13:12:32;28.67;;;14.43;;
76712;SDS011;65640;43.154;25.658;2022-12-10T13:20:31;31.67;;;15.05;;
76712;SDS011;65640;43.154;25.658;2022-12-10T13:23:00;25.50;;;13.55;;
76712;SDS011;65640;43.154;25.658;2022-12-10T13:37:03;9.23;;;6.65;;
76712;SDS011;65640;43.154;25.658;2022-12-10T13:39:35;6.80;;;5.90;;
76712;SDS011;65640;43.154;25.658;2022-12-10T13:45:00;4.90;;;3.53;;
76712;SDS011;65640;43.154;25.658;2022-12-10T13:49:58;6.65;;;4.60;;
76712;SDS011;65640;43.154;25.658;2022-12-10T13:58:19;19.20;;;13.55;;
76712;SDS011;65640;43.154;25.658;2022-12-10T14:03:39;12.73;;;6.70;;
76712;SDS011;65640;43.154;25.658;2022-12-10T14:08:35;10.05;;;5.60;;
76712;SDS011;65640;43.154;25.658;2022-12-10T14:11:04;7.40;;;4.30;;
76712;SDS011;65640;43.154;25.658;2022-12-10T14:13:39;32.42;;;28.88;;
76712;SDS011;65640;43.154;25.658;2022-12-10T14:16:11;7.97;;;4.57;;
76712;SDS011;65640;43.154;25.658;2022-12-10T14:18:42;12.48;;;6.60;;
76712;SDS011;65640;43.154;25.658;2022-12-10T14:21:11;4.10;;;3.03;;
76712;SDS011;65640;43.154;25.658;2022-12-10T14:23:43;9.45;;;4.57;;
76712;SDS011;65640;43.154;25.658;2022-12-10T14:26:13;7.43;;;2.40;;
76712;SDS011;65640;43.154;25.658;2022-12-10T14:28:39;5.05;;;2.85;;
76712;SDS011;65640;43.154;25.658;2022-12-10T14:31:10;2.65;;;2.45;;
76712;SDS011;65640;43.154;25.658;2022-12-10T14:33:39;5.28;;;2.20;;
76712;SDS011;65640;43.154;25.658;2022-12-10T14:36:05;11.57;;;2.75;;
76712;SDS011;65640;43.154;25.658;2022-12-10T14:38:32;6.32;;;2.35;;
76712;SDS011;65640;43.154;25.658;2022-12-10T14:40:59;5.25;;;2.35;;
76712;SDS011;65640;43.154;25.658;2022-12-10T14:46:13;4.97;;;2.78;;
76712;SDS011;65640;43.154;25.658;2022-12-10T14:48:42;9.38;;;6.03;;
76712;SDS011;65640;43.154;25.658;2022-12-10T14:51:17;10.20;;;6.20;;
76712;SDS011;65640;43.154;25.658;2022-12-10T14:53:45;9.20;;;2.97;;
76712;SDS011;65640;43.154;25.658;2022-12-10T14:56:14;13.38;;;6.15;;
76712;SDS011;65640;43.154;25.658;2022-12-10T14:58:46;13.15;;;6.07;;
76712;SDS011;65640;43.154;25.658;2022-12-10T15:01:16;16.20;;;5.78;;
76712;SDS011;65640;43.154;25.658;2022-12-10T15:06:21;6.95;;;3.63;;
76712;SDS011;65640;43.154;25.658;2022-12-10T15:08:46;3.97;;;3.58;;
76712;SDS011;65640;43.154;25.658;2022-12-10T15:11:16;6.57;;;2.88;;
76712;SDS011;65640;43.154;25.658;2022-12-10T15:13:51;6.68;;;4.38;;
76712;SDS011;65640;43.154;25.658;2022-12-10T15:16:30;6.38;;;3.63;;
76712;SDS011;65640;43.154;25.658;2022-12-10T15:21:46;4.38;;;2.42;;
76712;SDS011;65640;43.154;25.658;2022-12-10T15:26:44;7.57;;;2.50;;
76712;SDS011;65640;43.154;25.658;2022-12-10T15:29:30;5.57;;;2.42;;
76712;SDS011;65640;43.154;25.658;2022-12-10T15:32:00;3.97;;;2.17;;
76712;SDS011;65640;43.154;25.658;2022-12-10T15:34:29;11.05;;;2.97;;
76712;SDS011;65640;43.154;25.658;2022-12-10T15:37:03;7.70;;;2.70;;
76712;SDS011;65640;43.154;25.658;2022-12-10T15:39:37;4.57;;;3.03;;
76712;SDS011;65640;43.154;25.658;2022-12-10T15:45:24;10.65;;;4.72;;
76712;SDS011;65640;43.154;25.658;2022-12-10T15:47:52;17.98;;;9.07;;
76712;SDS011;65640;43.154;25.658;2022-12-10T15:50:21;8.43;;;5.03;;
76712;SDS011;65640;43.154;25.658;2022-12-10T15:52:46;9.27;;;5.00;;
76712;SDS011;65640;43.154;25.658;2022-12-10T15:55:13;11.07;;;6.20;;
76712;SDS011;65640;43.154;25.658;2022-12-10T15:57:41;12.63;;;6.38;;
76712;SDS011;65640;43.154;25.658;2022-12-10T16:00:21;13.40;;;6.60;;
76712;SDS011;65640;43.154;25.658;2022-12-10T16:02:56;12.40;;;4.38;;
76712;SDS011;65640;43.154;25.658;2022-12-10T16:05:30;7.13;;;3.20;;
76712;SDS011;65640;43.154;25.658;2022-12-10T16:08:01;15.30;;;5.78;;
76712;SDS011;65640;43.154;25.658;2022-12-10T16:10:36;8.40;;;3.17;;
76712;SDS011;65640;43.154;25.658;2022-12-10T16:13:02;8.18;;;3.13;;
76712;SDS011;65640;43.154;25.658;2022-12-10T16:15:30;6.57;;;3.10;;
76712;SDS011;65640;43.154;25.658;2022-12-10T16:18:03;6.47;;;2.53;;
76712;SDS011;65640;43.154;25.658;2022-12-10T16:20:31;11.13;;;5.55;;
76712;SDS011;65640;43.154;25.658;2022-12-10T16:22:58;7.25;;;3.78;;
76712;SDS011;65640;43.154;25.658;2022-12-10T16:25:25;9.30;;;3.65;;
76712;SDS011;65640;43.154;25.658;2022-12-10T16:27:52;7.43;;;4.00;;
76712;SDS011;65640;43.154;25.658;2022-12-10T16:30:22;11.98;;;4.32;;
76712;SDS011;65640;43.154;25.658;2022-12-10T16:32:49;7.90;;;4.65;;
76712;SDS011;65640;43.154;25.658;2022-12-10T16:35:16;11.75;;;4.80;;
76712;SDS011;65640;43.154;25.658;2022-12-10T16:40:12;8.40;;;3.20;;
76712;SDS011;65640;43.154;25.658;2022-12-10T16:42:39;6.57;;;3.05;;
76712;SDS011;65640;43.154;25.658;2022-12-10T16:45:27;7.40;;;3.13;;
76712;SDS011;65640;43.154;25.658;2022-12-10T16:48:09;5.38;;;2.53;;
76712;SDS011;65640;43.154;25.658;2022-12-10T16:50:36;4.95;;;2.78;;
76712;SDS011;65640;43.154;25.658;2022-12-10T16:53:22;9.75;;;3.08;;
76712;SDS011;65640;43.154;25.658;2022-12-10T16:55:50;12.77;;;3.72;;
76712;SDS011;65640;43.154;25.658;2022-12-10T16:58:16;11.48;;;4.10;;
76712;SDS011;65640;43.154;25.658;2022-12-10T17:00:46;7.82;;;3.10;;
76712;SDS011;65640;43.154;25.658;2022-12-10T17:03:17;7.97;;;3.78;;
76712;SDS011;65640;43.154;25.658;2022-12-10T17:05:56;8.07;;;3.72;;